Sheridan, WY

6:35 PM MDT on May 25, 2015 (GMT -0600)
North Airport Area | | Change Station
CLOSE
Current Station
Personal Weather Station
Location: Sheridan, WY
Elevation: 3917 ft
Nearby Weather Stations

Elev 3917 ft 44.78 °N, 106.97 °W | Updated 7 minutes ago

Clear
Clear
66.6 °F
Feels Like 66.6 °F
N
4.2
Wind Variable Wind from SSW

Today
High -- | Low -- °F
--% Chance of Precip.
Yesterday
High -- | Low -- °F
Precip. -- in
5:30 AM 8:40 PM
First Quarter, 53% visible
Pressure 29.89 in
Visibility 10.0 miles
Clouds Clear
Dew Point 51 °F
Humidity 57%
Rainfall 0.20 in
Snow Depth Not available.
UV 3 out of 12
Pollen 3.50 out of 12
Air Quality Not available.
Flu Activity Sporadic
METAR KSHR 252353Z AUTO 30007KT 10SM CLR 17/09 A2992 RMK AO2 SLP121 T01670089 10178 20144 56001

More Conditions Fewer Conditions

Pressure 29.89 in
Visibility 10.0 miles
Clouds Clear
Dew Point 51 °F
Humidity 57%
Rainfall 0.20 in
Snow Depth Not available.
UV 3 out of 12
Pollen 3.50 out of 12
Air Quality Not available.
Flu Activity Sporadic
METAR KSHR 252353Z AUTO 30007KT 10SM CLR 17/09 A2992 RMK AO2 SLP121 T01670089 10178 20144 56001

More Conditions Fewer Conditions

10-Day Weather Forecast

Almanac

Astronomy

May. 25, 2015 Rise Set
Actual Time
Civil Twilight
Nautical Twilight
Astronomical Twilight
Moon
Length of Visible Light
Length of Day
Tomorrow will be .
, % of the Moon is Illuminated

Today's Extremes

State Highs State Lows

Community

WunderPhotos

Upload Photos

1,824,187 photos uploaded!

WunderBlogs® & News

Nearby

Air Quality

  Air Quality AQ Index Pollutant
Not available.

Snow Depth

Station Depth Elevation

Earthquake Activity

City Distance Mag. Time & Date
Minimum magnitude displayed is 2.5.

Coastal Water Temperatures

Place Temperature

Stations

Nearby Weather Stations

Station Location Temp. Windchill Dew Point Humidity Wind Precip. Elev Updated Type
                   
Areal Flood Advisory
Statement as of 5:01 PM MDT on May 25, 2015

The National Weather Service in Billings has extended the

* Flood Advisory for...
Central Sheridan County in north central Wyoming...

* until 545 am MDT Tuesday

* at 500 PM MDT... flooding continues along little Goose Creek in
Sheridan County. Recent heavy rainfall over the foothills is
likely causing other creeks to run at bankfull as well... resulting
in localized flooding.

* Even though flooding continues... water levels have peaked and are
expected to fall tonight.

Precautionary/preparedness actions...

Do not drive over a water covered Road... as the Road may be washed
out underneath.


Lat... Lon 4485 10701 4456 10683 4456 10697 4497 10744
      4498 10733


Cjs